createdAt,value
2018-09-15T00:00:48.396Z,998.19
2018-09-15T00:01:48.410Z,998.22
2018-09-15T00:02:48.372Z,998.15
2018-09-15T00:03:48.373Z,998.19
2018-09-15T00:04:48.366Z,998.20
2018-09-15T00:05:48.355Z,998.22
2018-09-15T00:06:48.354Z,998.23
2018-09-15T00:07:48.342Z,998.27
2018-09-15T00:08:48.335Z,998.31
2018-09-15T00:09:48.329Z,998.29
2018-09-15T00:10:48.320Z,998.33
2018-09-15T00:11:48.311Z,998.36
2018-09-15T00:12:48.304Z,998.36
2018-09-15T00:13:48.298Z,998.39
2018-09-15T00:14:48.289Z,998.39
2018-09-15T00:15:48.280Z,998.41
2018-09-15T00:16:48.288Z,998.39
2018-09-15T00:17:48.276Z,998.38
2018-09-15T00:18:48.256Z,998.37
2018-09-15T00:19:48.245Z,998.37
2018-09-15T00:20:48.244Z,998.39
2018-09-15T00:21:48.239Z,998.40
2018-09-15T00:22:48.239Z,998.42
2018-09-15T00:23:48.220Z,998.40
2018-09-15T00:24:48.215Z,998.41
2018-09-15T00:25:48.204Z,998.48
2018-09-15T00:26:48.199Z,998.42
2018-09-15T00:27:48.189Z,998.40
2018-09-15T00:28:48.183Z,998.40
2018-09-15T00:29:48.177Z,998.44
2018-09-15T00:30:48.210Z,998.46
2018-09-15T00:31:48.188Z,998.46
2018-09-15T00:32:48.180Z,998.48
2018-09-15T00:33:48.139Z,998.50
2018-09-15T00:34:48.134Z,998.53
2018-09-15T00:35:48.130Z,998.54
2018-09-15T00:36:48.131Z,998.52
2018-09-15T00:37:48.115Z,998.51
2018-09-15T00:38:48.123Z,998.54
2018-09-15T00:39:48.111Z,998.50
2018-09-15T00:40:48.090Z,998.50
2018-09-15T00:41:48.145Z,998.47
2018-09-15T00:42:48.110Z,998.48
2018-09-15T00:43:48.073Z,998.51
2018-09-15T00:44:48.060Z,998.57
2018-09-15T00:45:48.053Z,998.54
2018-09-15T00:46:48.041Z,998.53
2018-09-15T00:47:48.036Z,998.54
2018-09-15T00:48:48.034Z,998.54
2018-09-15T00:49:48.019Z,998.48
2018-09-15T00:50:48.014Z,998.44
2018-09-15T00:51:48.006Z,998.44
2018-09-15T00:52:48.183Z,998.43
2018-09-15T00:53:48.255Z,998.43
2018-09-15T00:54:48.364Z,998.48
2018-09-15T00:55:48.464Z,998.41
2018-09-15T00:56:48.168Z,998.43
2018-09-15T00:57:48.160Z,998.43
2018-09-15T00:58:48.514Z,998.41
2018-09-15T00:59:48.202Z,998.41
2018-09-15T01:00:48.107Z,998.41
2018-09-15T01:01:48.295Z,998.42
2018-09-15T01:02:48.203Z,998.47
2018-09-15T01:03:48.429Z,998.45
2018-09-15T01:04:48.459Z,998.46
2018-09-15T01:05:48.459Z,998.45
2018-09-15T01:06:48.021Z,998.47
2018-09-15T01:07:48.193Z,998.46
2018-09-15T01:08:48.554Z,998.42
2018-09-15T01:09:48.036Z,998.42
2018-09-15T01:10:48.572Z,998.42
2018-09-15T01:11:48.321Z,998.43
2018-09-15T01:12:49.014Z,998.39
2018-09-15T01:13:47.879Z,998.45
2018-09-15T01:14:48.093Z,998.41
2018-09-15T01:15:48.253Z,998.38
2018-09-15T01:16:48.438Z,998.39
2018-09-15T01:17:48.546Z,998.40
2018-09-15T01:18:48.190Z,998.36
2018-09-15T01:19:48.103Z,998.38
2018-09-15T01:20:48.356Z,998.37
2018-09-15T01:21:48.166Z,998.42
2018-09-15T01:22:47.976Z,998.38
2018-09-15T01:23:47.989Z,998.38
2018-09-15T01:25:48.082Z,998.35
2018-09-15T01:26:48.121Z,998.38
2018-09-15T01:27:48.083Z,998.38
2018-09-15T01:28:47.912Z,998.37
2018-09-15T01:29:48.300Z,998.41
2018-09-15T01:30:47.953Z,998.41
2018-09-15T01:31:48.185Z,998.47
2018-09-15T01:32:48.305Z,998.45
2018-09-15T01:33:48.158Z,998.45
2018-09-15T01:34:48.039Z,998.46
2018-09-15T01:35:47.933Z,998.48
2018-09-15T01:36:48.015Z,998.46
2018-09-15T01:37:48.010Z,998.55
2018-09-15T01:38:47.848Z,998.53
2018-09-15T01:39:47.992Z,998.58
2018-09-15T01:40:47.780Z,998.52
2018-09-15T01:41:48.025Z,998.54
2018-09-15T01:42:47.882Z,998.54
2018-09-15T01:43:47.967Z,998.52
2018-09-15T01:44:47.816Z,998.49
2018-09-15T01:45:47.826Z,998.47
2018-09-15T01:46:48.250Z,998.52
2018-09-15T01:47:47.899Z,998.51
2018-09-15T01:48:48.007Z,998.54
2018-09-15T01:49:48.377Z,998.53
2018-09-15T01:50:48.377Z,998.55
2018-09-15T01:51:47.816Z,998.56
2018-09-15T01:52:47.642Z,998.57
2018-09-15T01:53:47.995Z,998.53
2018-09-15T01:54:47.938Z,998.55
2018-09-15T01:55:48.349Z,998.48
2018-09-15T01:56:47.797Z,998.53
2018-09-15T01:57:47.782Z,998.47
2018-09-15T01:58:47.788Z,998.51
2018-09-15T01:59:47.649Z,998.52
2018-09-15T02:00:47.975Z,998.53
2018-09-15T02:01:47.969Z,998.51
2018-09-15T02:02:47.882Z,998.52
2018-09-15T02:03:47.846Z,998.50
2018-09-15T02:04:47.713Z,998.54
2018-09-15T02:05:47.666Z,998.57
2018-09-15T02:06:48.515Z,998.57
2018-09-15T02:07:47.544Z,998.57
2018-09-15T02:08:47.770Z,998.61
2018-09-15T02:09:47.882Z,998.59
2018-09-15T02:10:47.689Z,998.60
2018-09-15T02:11:47.455Z,998.58
2018-09-15T02:12:47.936Z,998.64
2018-09-15T02:13:47.932Z,998.61
2018-09-15T02:14:47.791Z,998.67
2018-09-15T02:15:47.594Z,998.69
2018-09-15T02:16:47.880Z,998.71
2018-09-15T02:17:47.397Z,998.69
2018-09-15T02:18:47.666Z,998.68
2018-09-15T02:19:47.592Z,998.69
2018-09-15T02:20:47.486Z,998.71
2018-09-15T02:21:47.806Z,998.76
2018-09-15T02:22:47.724Z,998.73
2018-09-15T02:23:47.562Z,998.78
2018-09-15T02:24:47.564Z,998.80
2018-09-15T02:25:47.823Z,998.80
2018-09-15T02:26:47.975Z,998.80
2018-09-15T02:27:47.927Z,998.82
2018-09-15T02:28:47.670Z,998.82
2018-09-15T02:29:47.459Z,998.78
2018-09-15T02:30:47.687Z,998.80
2018-09-15T02:31:47.585Z,998.79
2018-09-15T02:32:48.045Z,998.82
2018-09-15T02:33:47.588Z,998.78
2018-09-15T02:34:47.792Z,998.85
2018-09-15T02:35:47.632Z,998.81
2018-09-15T02:36:47.527Z,998.84
2018-09-15T02:37:47.555Z,998.83
2018-09-15T02:38:47.571Z,998.83
2018-09-15T02:39:47.414Z,998.84
2018-09-15T02:40:47.588Z,998.86
2018-09-15T02:41:47.468Z,998.85
2018-09-15T02:42:48.196Z,998.90
2018-09-15T02:43:47.583Z,998.87
2018-09-15T02:44:47.914Z,998.90
2018-09-15T02:45:47.610Z,998.87
2018-09-15T02:46:56.289Z,998.92
2018-09-15T02:48:41.208Z,998.97
2018-09-15T02:51:35.854Z,998.99
2018-09-15T02:52:35.812Z,998.96
2018-09-15T02:55:07.229Z,998.97
2018-09-15T02:56:07.031Z,999.01
2018-09-15T02:58:04.889Z,999.03
2018-09-15T02:59:04.276Z,999.01
2018-09-15T03:00:03.989Z,999.04
2018-09-15T03:01:04.093Z,999.03
2018-09-15T03:02:04.049Z,999.01
2018-09-15T03:03:04.002Z,999.11
2018-09-15T03:04:04.170Z,999.06
2018-09-15T03:05:04.160Z,999.06
2018-09-15T03:06:04.067Z,999.09
2018-09-15T03:07:03.848Z,999.05
2018-09-15T03:08:04.070Z,999.07
2018-09-15T03:09:03.894Z,999.12
2018-09-15T03:10:03.915Z,999.12
2018-09-15T03:11:04.390Z,999.10
2018-09-15T03:12:04.567Z,999.09
2018-09-15T03:13:03.900Z,999.11
2018-09-15T03:14:03.972Z,999.09
2018-09-15T03:15:04.300Z,999.11
2018-09-15T03:16:03.909Z,999.09
2018-09-15T03:17:03.823Z,999.12
2018-09-15T03:18:04.064Z,999.11
2018-09-15T03:19:03.794Z,999.17
2018-09-15T03:20:04.188Z,999.12
2018-09-15T03:21:04.013Z,999.10
2018-09-15T03:22:03.941Z,999.11
2018-09-15T03:23:03.771Z,999.11
2018-09-15T03:24:03.631Z,999.11
2018-09-15T03:25:04.030Z,999.11
2018-09-15T03:26:03.679Z,999.13
2018-09-15T03:27:03.630Z,999.16
2018-09-15T03:28:03.784Z,999.16
2018-09-15T03:29:03.792Z,999.10
2018-09-15T03:30:03.760Z,999.15
2018-09-15T03:31:03.937Z,999.14
2018-09-15T03:32:03.822Z,999.13
2018-09-15T03:33:03.952Z,999.19
2018-09-15T03:34:03.850Z,999.12
2018-09-15T03:35:03.751Z,999.12
2018-09-15T03:36:03.981Z,999.16
2018-09-15T03:37:03.781Z,999.14
2018-09-15T03:38:03.695Z,999.18
2018-09-15T03:39:03.577Z,999.19
2018-09-15T03:40:03.718Z,999.18
2018-09-15T03:41:03.582Z,999.17
2018-09-15T03:42:03.908Z,999.19
2018-09-15T03:43:04.038Z,999.18
2018-09-15T03:44:03.670Z,999.19
2018-09-15T03:45:03.613Z,999.20
2018-09-15T03:46:03.626Z,999.19
2018-09-15T03:47:03.909Z,999.19
2018-09-15T03:48:03.695Z,999.19
2018-09-15T03:49:03.653Z,999.20
2018-09-15T03:50:03.862Z,999.22
2018-09-15T03:51:03.816Z,999.20
2018-09-15T03:52:03.394Z,999.25
2018-09-15T03:53:03.464Z,999.23
2018-09-15T03:54:03.865Z,999.25
2018-09-15T03:55:03.755Z,999.26
2018-09-15T03:56:04.062Z,999.30
2018-09-15T03:57:03.438Z,999.29
2018-09-15T03:58:03.854Z,999.32
2018-09-15T03:59:03.559Z,999.30
2018-09-15T04:00:04.093Z,999.30
2018-09-15T04:01:03.470Z,999.36
2018-09-15T04:02:03.399Z,999.30
2018-09-15T04:03:03.797Z,999.32
2018-09-15T04:04:03.383Z,999.29
2018-09-15T04:05:03.847Z,999.30
2018-09-15T04:06:03.597Z,999.30
2018-09-15T04:07:03.292Z,999.39
2018-09-15T04:08:03.909Z,999.35
2018-09-15T04:09:03.517Z,999.35
2018-09-15T04:10:03.275Z,999.40
2018-09-15T04:11:03.593Z,999.39
2018-09-15T04:12:03.519Z,999.42
2018-09-15T04:13:03.526Z,999.41
2018-09-15T04:14:03.495Z,999.41
2018-09-15T04:15:03.658Z,999.46
2018-09-15T04:16:03.522Z,999.46
2018-09-15T04:17:03.289Z,999.44
2018-09-15T04:18:03.581Z,999.48
2018-09-15T04:19:03.406Z,999.48
2018-09-15T04:20:03.468Z,999.50
2018-09-15T04:21:03.737Z,999.44
2018-09-15T04:22:03.617Z,999.45
2018-09-15T04:23:03.301Z,999.49
2018-09-15T04:24:03.627Z,999.51
2018-09-15T04:25:03.330Z,999.50
2018-09-15T04:26:03.145Z,999.47
2018-09-15T04:27:03.452Z,999.51
2018-09-15T04:28:03.229Z,999.47
2018-09-15T04:29:03.924Z,999.50
2018-09-15T04:30:03.372Z,999.55
2018-09-15T04:31:03.723Z,999.54
2018-09-15T04:32:03.357Z,999.52
2018-09-15T04:33:03.374Z,999.51
2018-09-15T04:34:03.178Z,999.55
2018-09-15T04:35:03.230Z,999.53
2018-09-15T04:36:03.794Z,999.54
2018-09-15T04:37:03.225Z,999.59
2018-09-15T04:38:03.358Z,999.55
2018-09-15T04:39:03.065Z,999.57
2018-09-15T04:40:03.216Z,999.55
2018-09-15T04:41:04.225Z,999.59
2018-09-15T04:42:03.193Z,999.54
2018-09-15T04:43:04.060Z,999.56
2018-09-15T04:44:03.145Z,999.55
2018-09-15T04:45:04.283Z,999.57
2018-09-15T04:46:03.269Z,999.55
2018-09-15T04:47:03.265Z,999.63
2018-09-15T04:48:03.477Z,999.61
2018-09-15T04:49:03.472Z,999.60
2018-09-15T04:50:03.290Z,999.60
2018-09-15T04:51:03.180Z,999.62
2018-09-15T04:52:03.367Z,999.62
2018-09-15T04:53:03.304Z,999.64
2018-09-15T04:54:03.067Z,999.64
2018-09-15T04:55:03.708Z,999.65
2018-09-15T04:56:03.710Z,999.65
2018-09-15T04:57:02.982Z,999.62
2018-09-15T04:58:02.890Z,999.67
2018-09-15T04:59:03.507Z,999.63
2018-09-15T05:00:03.243Z,999.70
2018-09-15T05:01:03.256Z,999.69
2018-09-15T05:02:03.560Z,999.70
2018-09-15T05:03:03.159Z,999.73
2018-09-15T05:04:03.235Z,999.78
2018-09-15T05:05:03.167Z,999.76
2018-09-15T05:06:03.244Z,999.74
2018-09-15T05:07:02.760Z,999.75
2018-09-15T05:08:03.091Z,999.76
2018-09-15T05:09:03.142Z,999.77
2018-09-15T05:10:03.305Z,999.73
2018-09-15T05:11:03.197Z,999.81
2018-09-15T05:12:03.210Z,999.79
2018-09-15T05:13:02.994Z,999.79
2018-09-15T05:14:03.001Z,999.80
2018-09-15T05:15:03.121Z,999.81
2018-09-15T05:16:03.015Z,999.85
2018-09-15T05:17:03.375Z,999.81
2018-09-15T05:18:02.783Z,999.79
2018-09-15T05:19:02.859Z,999.82
2018-09-15T05:20:03.186Z,999.82
2018-09-15T05:21:03.006Z,999.78
2018-09-15T05:22:03.058Z,999.78
2018-09-15T05:23:03.048Z,999.79
2018-09-15T05:24:03.004Z,999.78
2018-09-15T05:25:02.990Z,999.75
2018-09-15T05:26:02.825Z,999.78
2018-09-15T05:27:04.204Z,999.77
2018-09-15T05:28:02.753Z,999.82
2018-09-15T05:29:02.949Z,999.78
2018-09-15T05:30:02.810Z,999.83
2018-09-15T05:31:02.820Z,999.87
2018-09-15T05:32:02.729Z,999.93
2018-09-15T05:33:02.653Z,999.89
2018-09-15T05:34:03.501Z,999.96
2018-09-15T05:35:03.309Z,1000.01
2018-09-15T05:36:02.742Z,1000.04
2018-09-15T05:37:02.743Z,1000.05
2018-09-15T05:38:02.688Z,1000.08
2018-09-15T05:39:02.776Z,1000.16
2018-09-15T05:40:02.680Z,1000.15
2018-09-15T05:41:03.088Z,1000.16
2018-09-15T05:42:02.793Z,1000.18
2018-09-15T05:43:02.859Z,1000.18
2018-09-15T05:44:02.775Z,1000.20
2018-09-15T05:45:02.746Z,1000.23
2018-09-15T05:46:03.371Z,1000.28
2018-09-15T05:47:02.649Z,1000.31
2018-09-15T05:48:02.627Z,1000.33
2018-09-15T05:49:02.621Z,1000.35
2018-09-15T05:50:03.184Z,1000.35
2018-09-15T05:51:02.646Z,1000.39
2018-09-15T05:52:02.466Z,1000.41
2018-09-15T05:53:02.591Z,1000.45
2018-09-15T05:54:02.634Z,1000.45
2018-09-15T05:55:02.773Z,1000.47
2018-09-15T05:56:02.585Z,1000.47
2018-09-15T05:57:03.531Z,1000.49
2018-09-15T05:58:02.638Z,1000.53
2018-09-15T05:59:02.638Z,1000.52
2018-09-15T06:00:02.822Z,1000.57
2018-09-15T06:01:02.671Z,1000.60
2018-09-15T06:02:03.062Z,1000.60
2018-09-15T06:03:02.724Z,1000.58
2018-09-15T06:04:02.481Z,1000.58
2018-09-15T06:05:03.094Z,1000.58
2018-09-15T06:06:02.352Z,1000.62
2018-09-15T06:07:02.389Z,1000.59
2018-09-15T06:08:02.695Z,1000.62
2018-09-15T06:09:02.490Z,1000.57
2018-09-15T06:10:02.634Z,1000.57
2018-09-15T06:11:02.856Z,1000.56
2018-09-15T06:12:02.410Z,1000.54
2018-09-15T06:13:02.618Z,1000.56
2018-09-15T06:14:02.375Z,1000.58
2018-09-15T06:15:02.341Z,1000.55
2018-09-15T06:16:02.737Z,1000.58
2018-09-15T06:17:02.365Z,1000.58
2018-09-15T06:18:02.927Z,1000.55
2018-09-15T06:19:02.407Z,1000.56
2018-09-15T06:20:02.449Z,1000.55
2018-09-15T06:21:02.509Z,1000.57
2018-09-15T06:22:02.526Z,1000.59
2018-09-15T06:23:02.830Z,1000.59
2018-09-15T06:24:02.871Z,1000.60
2018-09-15T06:25:02.489Z,1000.60
2018-09-15T06:26:02.415Z,1000.62
2018-09-15T06:27:02.814Z,1000.64
2018-09-15T06:28:02.396Z,1000.62
2018-09-15T06:29:02.389Z,1000.64
2018-09-15T06:30:02.541Z,1000.67
2018-09-15T06:31:02.367Z,1000.69
2018-09-15T06:32:02.228Z,1000.67
2018-09-15T06:33:02.311Z,1000.72
2018-09-15T06:34:02.286Z,1000.74
2018-09-15T06:35:02.452Z,1000.70
2018-09-15T06:36:02.412Z,1000.73
2018-09-15T06:37:02.273Z,1000.75
2018-09-15T06:38:02.844Z,1000.75
2018-09-15T06:39:02.279Z,1000.74
2018-09-15T06:40:02.441Z,1000.73
2018-09-15T06:41:02.710Z,1000.78
2018-09-15T06:42:02.228Z,1000.73
2018-09-15T06:43:02.212Z,1000.74
2018-09-15T06:44:02.141Z,1000.77
2018-09-15T06:45:03.054Z,1000.78
2018-09-15T06:46:02.417Z,1000.77
2018-09-15T06:47:02.293Z,1000.77
2018-09-15T06:48:02.245Z,1000.79
2018-09-15T06:49:02.418Z,1000.79
2018-09-15T06:50:02.677Z,1000.79
2018-09-15T06:51:02.325Z,1000.81
2018-09-15T06:52:02.032Z,1000.78
2018-09-15T06:53:02.730Z,1000.81
2018-09-15T06:54:03.026Z,1000.82
2018-09-15T06:55:02.543Z,1000.77
2018-09-15T06:56:02.219Z,1000.79
2018-09-15T06:57:02.222Z,1000.79
2018-09-15T06:58:02.142Z,1000.86
2018-09-15T06:59:02.099Z,1000.82
2018-09-15T07:00:02.329Z,1000.88
2018-09-15T07:01:02.440Z,1000.90
2018-09-15T07:02:02.302Z,1000.94
2018-09-15T07:03:02.020Z,1000.92
2018-09-15T07:04:02.765Z,1000.94
2018-09-15T07:05:02.392Z,1000.93
2018-09-15T07:06:02.181Z,1000.95
2018-09-15T07:07:02.267Z,1001.00
2018-09-15T07:08:01.932Z,1000.99
2018-09-15T07:09:02.190Z,1001.00
2018-09-15T07:10:02.098Z,1001.02
2018-09-15T07:11:02.218Z,1001.04
2018-09-15T07:12:01.985Z,1001.05
2018-09-15T07:13:02.165Z,1001.05
2018-09-15T07:14:01.946Z,1001.05
2018-09-15T07:15:02.183Z,1001.07
2018-09-15T07:16:02.208Z,1001.08
2018-09-15T07:17:02.203Z,1001.07
2018-09-15T07:18:01.736Z,1001.05
2018-09-15T07:19:01.984Z,1001.06
2018-09-15T07:20:02.164Z,1001.05
2018-09-15T07:22:07.232Z,1001.06
2018-09-15T07:23:02.074Z,1001.11
2018-09-15T07:24:01.993Z,1001.11
2018-09-15T07:25:01.768Z,1001.17
2018-09-15T07:26:02.307Z,1001.14
2018-09-15T07:27:01.709Z,1001.14
2018-09-15T07:28:02.214Z,1001.18
2018-09-15T07:29:02.014Z,1001.18
2018-09-15T07:30:01.836Z,1001.20
2018-09-15T07:31:02.182Z,1001.22
2018-09-15T07:32:02.121Z,1001.20
2018-09-15T07:33:01.894Z,1001.24
2018-09-15T07:34:01.870Z,1001.24
2018-09-15T07:35:01.772Z,1001.27
2018-09-15T07:36:02.371Z,1001.26
2018-09-15T07:37:01.583Z,1001.29
2018-09-15T07:38:01.781Z,1001.30
2018-09-15T16:52:33.126Z,1001.13
2018-09-15T16:53:32.947Z,1001.11
2018-09-15T16:55:26.157Z,1001.09
2018-09-15T16:56:25.821Z,1001.14
2018-09-15T16:58:18.713Z,1001.16
2018-09-15T16:59:18.684Z,1001.15
2018-09-15T17:01:12.562Z,1001.13
2018-09-15T17:02:12.551Z,1001.16
2018-09-15T17:04:05.440Z,1001.16
2018-09-15T17:05:05.408Z,1001.14
2018-09-15T17:06:59.286Z,1001.16
2018-09-15T17:07:59.254Z,1001.22
2018-09-15T17:09:52.151Z,1001.21
2018-09-15T17:10:52.128Z,1001.20
2018-09-15T17:12:45.951Z,1001.23
2018-09-15T17:13:45.930Z,1001.25
2018-09-15T17:15:38.843Z,1001.28
2018-09-15T17:16:38.832Z,1001.24
2018-09-15T17:18:31.680Z,1001.22
2018-09-15T17:19:31.648Z,1001.22
2018-09-15T17:21:24.552Z,1001.23
2018-09-15T17:22:24.517Z,1001.24
2018-09-15T17:24:17.424Z,1001.26
2018-09-15T17:25:17.400Z,1001.24
2018-09-15T17:27:10.267Z,1001.27
2018-09-15T17:28:10.259Z,1001.26
2018-09-15T17:30:07.154Z,1001.24
2018-09-15T17:31:07.130Z,1001.30
2018-09-15T17:32:07.127Z,1001.28
2018-09-15T17:33:07.279Z,1001.28
2018-09-15T17:34:07.077Z,1001.31
2018-09-15T17:35:07.079Z,1001.32
2018-09-15T17:36:07.121Z,1001.33
2018-09-15T17:37:07.090Z,1001.32
2018-09-15T17:38:07.051Z,1001.33
2018-09-15T17:39:07.040Z,1001.38
2018-09-15T17:40:07.033Z,1001.38
2018-09-15T17:41:07.039Z,1001.39
2018-09-15T17:42:07.020Z,1001.39
2018-09-15T17:43:07.009Z,1001.39
2018-09-15T17:44:07.002Z,1001.43
2018-09-15T17:45:07.003Z,1001.39
2018-09-15T17:46:06.984Z,1001.42
2018-09-15T17:47:06.980Z,1001.48
2018-09-15T17:48:06.972Z,1001.43
2018-09-15T17:49:07.568Z,1001.44
2018-09-15T17:50:06.968Z,1001.44
2018-09-15T17:51:06.948Z,1001.46
2018-09-15T17:52:06.949Z,1001.48
2018-09-15T17:53:06.939Z,1001.50
2018-09-15T17:54:06.923Z,1001.50
2018-09-15T17:55:06.938Z,1001.51
2018-09-15T17:56:06.920Z,1001.52
2018-09-15T17:57:06.895Z,1001.54
2018-09-15T17:58:06.909Z,1001.52
2018-09-15T17:59:06.895Z,1001.52
2018-09-15T18:00:06.884Z,1001.52
2018-09-15T18:01:06.868Z,1001.51
2018-09-15T18:02:06.863Z,1001.54
2018-09-15T18:03:06.874Z,1001.58
2018-09-15T18:04:06.848Z,1001.61
2018-09-15T18:05:06.851Z,1001.56
2018-09-15T18:06:06.839Z,1001.63
2018-09-15T18:07:06.823Z,1001.62
2018-09-15T18:08:06.812Z,1001.59
2018-09-15T18:09:06.802Z,1001.64
2018-09-15T18:10:06.819Z,1001.57
2018-09-15T18:11:06.787Z,1001.61
2018-09-15T18:12:06.783Z,1001.61
2018-09-15T18:13:06.780Z,1001.65
2018-09-15T18:14:06.759Z,1001.63
2018-09-15T18:15:06.759Z,1001.63
2018-09-15T18:16:06.759Z,1001.65
2018-09-15T18:17:06.752Z,1001.64
2018-09-15T18:18:06.739Z,1001.63
2018-09-15T18:19:06.729Z,1001.61
2018-09-15T18:20:06.712Z,1001.62
2018-09-15T18:21:06.706Z,1001.64
2018-09-15T18:22:06.777Z,1001.64
2018-09-15T18:23:06.700Z,1001.67
2018-09-15T18:24:06.692Z,1001.67
2018-09-15T18:25:06.680Z,1001.72
2018-09-15T18:26:06.664Z,1001.68
2018-09-15T18:27:06.654Z,1001.72
2018-09-15T18:28:06.722Z,1001.67
2018-09-15T18:29:06.649Z,1001.67
2018-09-15T18:30:06.643Z,1001.67
2018-09-15T18:31:06.629Z,1001.65
2018-09-15T18:32:06.624Z,1001.68
2018-09-15T18:33:06.613Z,1001.63
2018-09-15T18:34:06.603Z,1001.63
2018-09-15T18:35:06.598Z,1001.66
2018-09-15T18:36:06.664Z,1001.68
2018-09-15T18:37:06.580Z,1001.69
2018-09-15T18:38:06.569Z,1001.69
2018-09-15T18:39:06.570Z,1001.65
2018-09-15T18:40:06.561Z,1001.68
2018-09-15T18:41:06.551Z,1001.70
2018-09-15T18:42:06.547Z,1001.70
2018-09-15T18:43:06.532Z,1001.68
2018-09-15T18:44:06.525Z,1001.69
2018-09-15T18:45:06.518Z,1001.73
2018-09-15T18:46:06.516Z,1001.74
2018-09-15T18:47:06.507Z,1001.79
2018-09-15T18:48:06.496Z,1001.78
2018-09-15T18:49:07.147Z,1001.75
2018-09-15T18:50:06.477Z,1001.76
2018-09-15T18:51:06.466Z,1001.78
2018-09-15T18:52:06.464Z,1001.73
2018-09-15T18:53:06.458Z,1001.76
2018-09-15T18:54:06.449Z,1001.77
2018-09-15T18:55:06.664Z,1001.75
2018-09-15T18:56:06.430Z,1001.78
2018-09-15T18:57:06.423Z,1001.77
2018-09-15T18:58:06.471Z,1001.81
2018-09-15T18:59:07.034Z,1001.83
2018-09-15T19:00:06.703Z,1001.84
2018-09-15T19:01:06.598Z,1001.86
2018-09-15T19:02:06.397Z,1001.90
2018-09-15T19:03:06.539Z,1001.90
2018-09-15T19:04:06.730Z,1001.90
2018-09-15T19:05:06.614Z,1001.91
2018-09-15T19:06:06.425Z,1001.90
2018-09-15T19:07:06.354Z,1001.93
2018-09-15T19:08:06.335Z,1001.92
2018-09-15T19:09:06.324Z,1001.93
2018-09-15T19:10:06.323Z,1001.94
2018-09-15T19:11:06.328Z,1001.91
2018-09-15T19:12:06.464Z,1001.91
2018-09-15T19:13:06.793Z,1001.92
2018-09-15T19:14:06.291Z,1001.93
2018-09-15T19:15:06.283Z,1001.95
2018-09-15T19:16:06.279Z,1001.93
2018-09-15T19:17:06.321Z,1001.93
2018-09-15T19:18:06.259Z,1001.95
2018-09-15T19:19:06.925Z,1001.93
2018-09-15T19:20:06.240Z,1001.96
2018-09-15T19:21:06.239Z,1001.94
2018-09-15T19:22:06.227Z,1001.98
2018-09-15T19:23:06.224Z,1001.99
2018-09-15T19:24:06.210Z,1001.95
2018-09-15T19:25:06.405Z,1001.98
2018-09-15T19:26:06.645Z,1001.97
2018-09-15T19:27:06.184Z,1001.99
2018-09-15T19:28:06.265Z,1001.97
2018-09-15T19:29:06.176Z,1002.00
2018-09-15T19:30:06.159Z,1002.00
2018-09-15T19:31:06.170Z,1002.05
2018-09-15T19:32:06.203Z,1002.04
2018-09-15T19:33:06.143Z,1002.04
2018-09-15T19:34:06.138Z,1002.04
2018-09-15T19:35:06.126Z,1002.05
2018-09-15T19:36:06.115Z,1002.08
2018-09-15T19:37:06.113Z,1002.07
2018-09-15T19:38:06.105Z,1002.15
2018-09-15T19:39:06.111Z,1002.15
2018-09-15T19:40:06.090Z,1002.20
2018-09-15T19:41:06.082Z,1002.18
2018-09-15T19:42:06.080Z,1002.20
2018-09-15T19:43:06.058Z,1002.16
2018-09-15T19:44:06.060Z,1002.12
2018-09-15T19:45:06.045Z,1002.11
2018-09-15T19:46:06.040Z,1002.14
2018-09-15T19:47:06.031Z,1002.16
2018-09-15T19:48:06.020Z,1002.17
2018-09-15T19:49:06.027Z,1002.17
2018-09-15T19:50:06.007Z,1002.21
2018-09-15T19:51:06.003Z,1002.20
2018-09-15T19:52:06.315Z,1002.25
2018-09-15T19:53:06.438Z,1002.26
2018-09-15T19:54:05.974Z,1002.29
2018-09-15T19:55:05.964Z,1002.27
2018-09-15T19:56:05.967Z,1002.26
2018-09-15T19:57:05.953Z,1002.29
2018-09-15T19:58:06.145Z,1002.28
2018-09-15T19:59:06.765Z,1002.30
2018-09-15T20:00:05.933Z,1002.32
2018-09-15T20:01:05.922Z,1002.28
2018-09-15T20:02:05.914Z,1002.28
2018-09-15T20:03:05.901Z,1002.33
2018-09-15T20:04:05.903Z,1002.31
2018-09-15T20:05:05.920Z,1002.32
2018-09-15T20:06:05.940Z,1002.29
2018-09-15T20:07:05.898Z,1002.28
2018-09-15T20:08:05.867Z,1002.28
2018-09-15T20:09:05.990Z,1002.24
2018-09-15T20:10:06.144Z,1002.23
2018-09-15T20:11:05.844Z,1002.21
2018-09-15T20:12:05.840Z,1002.23
2018-09-15T20:13:05.958Z,1002.24
2018-09-15T20:14:05.828Z,1002.25
2018-09-15T20:15:05.807Z,1002.24
2018-09-15T20:16:05.800Z,1002.25
2018-09-15T20:17:05.798Z,1002.23
2018-09-15T20:18:05.786Z,1002.25
2018-09-15T20:19:05.812Z,1002.29
2018-09-15T20:20:05.833Z,1002.25
2018-09-15T20:21:05.763Z,1002.32
2018-09-15T20:22:06.059Z,1002.30
2018-09-15T20:23:05.749Z,1002.28
2018-09-15T20:24:05.855Z,1002.28
2018-09-15T20:25:05.729Z,1002.31
2018-09-15T20:26:05.733Z,1002.31
2018-09-15T20:27:05.720Z,1002.34
2018-09-15T20:28:05.706Z,1002.28
2018-09-15T20:29:05.709Z,1002.31
2018-09-15T20:30:05.701Z,1002.28
2018-09-15T20:31:05.680Z,1002.30
2018-09-15T20:32:05.673Z,1002.25
2018-09-15T20:33:05.874Z,1002.26
2018-09-15T20:34:05.660Z,1002.28
2018-09-15T20:35:05.651Z,1002.24
2018-09-15T20:36:05.642Z,1002.22
2018-09-15T20:37:05.632Z,1002.22
2018-09-15T20:38:05.625Z,1002.25
2018-09-15T20:39:05.615Z,1002.28
2018-09-15T20:40:05.612Z,1002.32
2018-09-15T20:41:05.609Z,1002.30
2018-09-15T20:42:05.595Z,1002.31
2018-09-15T20:43:05.587Z,1002.32
2018-09-15T20:44:05.581Z,1002.30
2018-09-15T20:45:05.573Z,1002.32
2018-09-15T20:46:05.585Z,1002.31
2018-09-15T20:47:05.555Z,1002.31
2018-09-15T20:48:05.547Z,1002.29
2018-09-15T20:49:05.570Z,1002.31
2018-09-15T20:50:05.541Z,1002.37
2018-09-15T20:51:05.525Z,1002.33
2018-09-15T20:52:05.517Z,1002.35
2018-09-15T20:53:05.514Z,1002.36
2018-09-15T20:54:05.496Z,1002.34
2018-09-15T20:55:05.492Z,1002.36
2018-09-15T20:56:05.485Z,1002.37
2018-09-15T20:57:05.477Z,1002.36
2018-09-15T20:58:05.470Z,1002.37
2018-09-15T20:59:05.459Z,1002.36
2018-09-15T21:00:05.467Z,1002.40
2018-09-15T21:01:05.448Z,1002.40
2018-09-15T21:02:05.478Z,1002.39
2018-09-15T21:03:05.466Z,1002.37
2018-09-15T21:04:05.459Z,1002.42
2018-09-15T21:05:05.494Z,1002.44
2018-09-15T21:06:05.531Z,1002.46
2018-09-15T21:07:06.756Z,1002.47
2018-09-15T21:08:05.583Z,1002.45
2018-09-15T21:09:05.823Z,1002.44
2018-09-15T21:10:05.377Z,1002.44
2018-09-15T21:11:05.369Z,1002.41
2018-09-15T21:12:05.364Z,1002.45
2018-09-15T21:13:05.352Z,1002.42
2018-09-15T21:14:05.342Z,1002.39
2018-09-15T21:15:05.335Z,1002.40
2018-09-15T21:16:05.431Z,1002.39
2018-09-15T21:17:05.316Z,1002.41
2018-09-15T21:18:05.300Z,1002.39
2018-09-15T21:19:05.301Z,1002.40
2018-09-15T21:20:05.295Z,1002.42
2018-09-15T21:21:05.286Z,1002.41
2018-09-15T21:22:05.280Z,1002.40
2018-09-15T21:23:05.764Z,1002.42
2018-09-15T21:24:05.260Z,1002.38
2018-09-15T21:25:05.250Z,1002.42
2018-09-15T21:26:05.246Z,1002.43
2018-09-15T21:27:05.386Z,1002.41
2018-09-15T21:28:05.351Z,1002.44
2018-09-15T21:29:06.461Z,1002.42
2018-09-15T21:30:05.225Z,1002.42
2018-09-15T21:31:05.214Z,1002.44
2018-09-15T21:32:05.414Z,1002.42
2018-09-15T21:33:05.196Z,1002.43
2018-09-15T21:34:05.192Z,1002.42
2018-09-15T21:35:05.205Z,1002.47
2018-09-15T21:36:05.162Z,1002.48
2018-09-15T21:37:05.429Z,1002.48
2018-09-15T21:38:05.160Z,1002.46
2018-09-15T21:39:05.142Z,1002.48
2018-09-15T21:40:05.146Z,1002.48
2018-09-15T21:41:05.133Z,1002.46
2018-09-15T21:42:05.128Z,1002.46
2018-09-15T21:43:05.120Z,1002.46
2018-09-15T21:44:05.110Z,1002.50
2018-09-15T21:45:05.102Z,1002.50
2018-09-15T21:46:05.158Z,1002.50
2018-09-15T21:47:05.084Z,1002.49
2018-09-15T21:48:05.088Z,1002.53